createdAt,value
2022-09-20T00:01:46.853Z,2.70
2022-09-20T00:04:38.533Z,4.70
2022-09-20T00:07:25.838Z,3.90
2022-09-20T00:10:14.421Z,6.00
2022-09-20T00:13:01.682Z,5.00
2022-09-20T00:15:48.829Z,4.50
2022-09-20T00:18:36.872Z,6.00
2022-09-20T00:21:27.264Z,4.00
2022-09-20T00:24:14.153Z,4.00
2022-09-20T00:27:01.434Z,4.80
2022-09-20T00:29:54.244Z,3.60
2022-09-20T00:32:41.850Z,6.20
2022-09-20T00:35:30.100Z,5.70
2022-09-20T00:38:17.470Z,3.80
2022-09-20T00:41:04.169Z,4.30
2022-09-20T00:43:52.217Z,5.10
2022-09-20T00:46:44.640Z,5.30
2022-09-20T00:49:34.271Z,3.90
2022-09-20T00:52:21.888Z,3.60
2022-09-20T00:55:09.464Z,4.50
2022-09-20T00:57:56.464Z,3.20
2022-09-20T01:08:57.999Z,3.60
2022-09-20T01:12:28.951Z,3.80
2022-09-20T01:16:00.035Z,4.30
2022-09-20T01:19:30.948Z,3.90
2022-09-20T01:23:27.264Z,3.50
2022-09-20T01:27:12.995Z,3.40
2022-09-20T01:30:49.980Z,3.60
2022-09-20T01:34:21.952Z,5.10
2022-09-20T01:38:11.037Z,4.90
2022-09-20T01:41:50.040Z,3.90
2022-09-20T01:45:33.140Z,2.20
2022-09-20T01:49:03.924Z,3.40
2022-09-20T01:52:35.021Z,3.20
2022-09-20T01:56:08.923Z,3.00
2022-09-20T01:59:58.022Z,2.30
2022-09-20T02:03:56.933Z,3.60
2022-09-20T02:07:31.042Z,2.50
2022-09-20T02:11:17.095Z,3.00
2022-09-20T02:15:11.066Z,4.00
2022-09-20T02:18:41.042Z,3.00
2022-09-20T02:22:20.874Z,2.70
2022-09-20T02:25:54.079Z,3.50
2022-09-20T02:29:27.895Z,4.50
2022-09-20T02:32:59.015Z,3.60
2022-09-20T02:36:29.893Z,3.20
2022-09-20T02:40:07.085Z,3.30
2022-09-20T02:43:48.891Z,3.70
2022-09-20T02:47:20.029Z,3.70
2022-09-20T02:50:59.894Z,2.70
2022-09-20T02:54:37.121Z,2.10
2022-09-20T02:58:20.866Z,2.60
2022-09-20T03:01:55.131Z,2.80
2022-09-20T03:05:29.901Z,2.70
2022-09-20T03:09:07.032Z,2.90
2022-09-20T03:12:44.891Z,3.50
2022-09-20T03:16:35.152Z,4.00
2022-09-20T03:20:05.891Z,4.40
2022-09-20T03:23:55.439Z,5.70
2022-09-20T03:27:39.837Z,4.30
2022-09-20T03:31:09.979Z,3.50
2022-09-20T03:34:43.865Z,3.60
2022-09-20T03:38:13.058Z,3.50
2022-09-20T03:41:49.865Z,3.70
2022-09-20T03:45:45.086Z,4.00
2022-09-20T03:49:27.890Z,3.60
2022-09-20T03:53:07.970Z,5.30
2022-09-20T03:56:50.862Z,3.10
2022-09-20T04:00:25.008Z,4.30
2022-09-20T04:04:01.884Z,4.60
2022-09-20T04:07:42.003Z,2.80
2022-09-20T04:11:18.858Z,3.50
2022-09-20T04:14:53.017Z,6.10
2022-09-20T04:18:26.862Z,4.60
2022-09-20T04:22:10.033Z,3.10
2022-09-20T04:25:58.831Z,3.60
2022-09-20T04:29:44.982Z,4.70
2022-09-20T04:33:24.871Z,4.80
2022-09-20T04:36:53.034Z,4.00
2022-09-20T04:40:29.934Z,4.50
2022-09-20T04:44:25.975Z,3.70
2022-09-20T04:48:21.861Z,4.00
2022-09-20T04:51:59.988Z,3.70
2022-09-20T04:55:39.849Z,4.10
2022-09-20T04:59:09.979Z,3.50
2022-09-20T05:02:39.899Z,3.90
2022-09-20T05:06:11.968Z,3.70
2022-09-20T05:09:45.843Z,4.80
2022-09-20T05:13:44.070Z,3.30
2022-09-20T05:17:14.851Z,4.20
2022-09-20T05:21:12.013Z,4.50
2022-09-20T05:24:51.844Z,3.40
2022-09-20T05:28:27.106Z,3.30
2022-09-20T05:32:12.929Z,3.80
2022-09-20T05:35:48.975Z,3.50
2022-09-20T05:39:25.884Z,4.80
2022-09-20T05:43:11.971Z,4.20
2022-09-20T05:46:48.853Z,3.10
2022-09-20T05:50:35.026Z,3.50
2022-09-20T05:54:17.816Z,3.80
2022-09-20T05:57:47.950Z,2.80
2022-09-20T06:01:17.899Z,3.60
2022-09-20T06:04:54.833Z,3.60
2022-09-20T06:08:37.841Z,3.00
2022-09-20T06:12:13.013Z,3.30
2022-09-20T06:15:52.832Z,2.90
2022-09-20T06:19:48.018Z,2.30
2022-09-20T06:23:15.858Z,1.80
2022-09-20T06:26:50.979Z,1.90
2022-09-20T06:30:23.835Z,2.30
2022-09-20T06:33:58.174Z,2.90
2022-09-20T06:37:33.588Z,2.80
2022-09-20T06:41:14.900Z,3.70
2022-09-20T06:44:47.877Z,1.80
2022-09-20T06:48:19.061Z,2.80
2022-09-20T06:51:52.867Z,2.90
2022-09-20T06:55:28.893Z,1.80
2022-09-20T06:59:04.998Z,2.20
2022-09-20T07:02:36.009Z,2.70
2022-09-20T07:06:05.851Z,2.30
2022-09-20T07:09:36.936Z,1.90
2022-09-20T07:13:05.870Z,2.50
2022-09-20T07:16:37.091Z,3.20
2022-09-20T07:20:06.853Z,1.70
2022-09-20T07:23:24.738Z,2.80
2022-09-20T07:26:53.852Z,2.20
2022-09-20T07:30:25.204Z,2.60
2022-09-20T07:33:55.833Z,2.40
2022-09-20T07:37:35.018Z,3.80
2022-09-20T07:41:04.905Z,2.30
2022-09-20T07:44:36.973Z,3.60
2022-09-20T07:48:11.816Z,3.40
2022-09-20T07:51:42.954Z,4.70
2022-09-20T07:55:13.822Z,4.80
2022-09-20T07:58:52.127Z,2.40
2022-09-20T08:02:21.986Z,5.10
2022-09-20T08:05:53.039Z,5.40
2022-09-20T08:09:24.853Z,5.70
2022-09-20T08:16:47.280Z,7.30
2022-09-20T08:20:17.932Z,3.80
2022-09-20T08:23:47.842Z,6.60
2022-09-20T08:27:22.905Z,5.90
2022-09-20T08:30:49.840Z,5.30
2022-09-20T08:34:20.922Z,6.40
2022-09-20T08:37:52.009Z,5.40
2022-09-20T08:41:28.939Z,4.70
2022-09-20T08:45:00.946Z,3.30
2022-09-20T08:48:32.917Z,3.60
2022-09-20T08:52:04.359Z,3.30
2022-09-20T08:55:37.232Z,4.20
2022-09-20T08:59:08.866Z,4.20
2022-09-20T09:02:42.880Z,4.00
2022-09-20T09:06:17.778Z,2.90
2022-09-20T09:09:49.998Z,3.70
2022-09-20T09:13:20.830Z,2.80
2022-09-20T09:16:51.967Z,3.40
2022-09-20T09:20:29.832Z,3.20
2022-09-20T09:23:58.965Z,1.70
2022-09-20T09:27:45.856Z,2.70
2022-09-20T09:31:18.945Z,3.10
2022-09-20T09:34:55.834Z,2.80
2022-09-20T09:38:29.959Z,3.60
2022-09-20T09:42:09.826Z,3.70
2022-09-20T09:45:43.971Z,2.40
2022-09-20T09:49:15.061Z,2.80
2022-09-20T09:52:33.915Z,2.70
2022-09-20T09:56:04.805Z,2.90
2022-09-20T09:59:34.508Z,2.50
2022-09-20T10:03:18.763Z,2.60
2022-09-20T10:06:36.284Z,3.20
2022-09-20T10:10:16.167Z,2.50
2022-09-20T10:13:49.209Z,2.90
2022-09-20T10:17:04.176Z,3.70
2022-09-20T10:20:38.194Z,4.20
2022-09-20T10:27:34.930Z,3.10
2022-09-20T10:31:26.192Z,2.30
2022-09-20T10:34:33.611Z,2.10
2022-09-20T10:38:07.817Z,2.10
2022-09-20T10:41:46.725Z,1.70
2022-09-20T10:46:03.785Z,1.40
2022-09-20T10:49:55.911Z,2.40
2022-09-20T10:53:35.890Z,1.30
2022-09-20T10:57:01.169Z,2.20
2022-09-20T11:00:02.441Z,1.90
2022-09-20T11:04:12.927Z,1.00
2022-09-20T11:07:42.777Z,1.00
2022-09-20T11:11:18.870Z,1.00
2022-09-20T11:14:55.773Z,1.50
2022-09-20T11:18:29.914Z,1.00
2022-09-20T11:22:04.773Z,1.70
2022-09-20T11:25:45.030Z,1.60
2022-09-20T11:29:15.797Z,1.40
2022-09-20T11:33:01.950Z,1.80
2022-09-20T11:36:32.732Z,1.60
2022-09-20T11:40:18.028Z,1.60
2022-09-20T11:43:29.781Z,1.90
2022-09-20T11:46:52.918Z,2.10
2022-09-20T11:50:39.544Z,1.40
2022-09-20T11:53:34.491Z,1.40
2022-09-20T11:57:11.911Z,1.10
2022-09-20T12:00:42.849Z,1.70
2022-09-20T12:08:04.036Z,1.10
2022-09-20T12:11:29.921Z,1.70
2022-09-20T12:14:44.751Z,2.30
2022-09-20T12:18:25.776Z,1.60
2022-09-20T12:21:30.781Z,1.60
2022-09-20T12:24:46.813Z,1.40
2022-09-20T12:28:17.862Z,1.50
2022-09-20T12:31:47.876Z,1.60
2022-09-20T12:35:21.875Z,1.70
2022-09-20T12:38:58.782Z,2.80
2022-09-20T12:42:42.889Z,3.90
2022-09-20T12:46:13.827Z,2.40
2022-09-20T12:50:13.683Z,1.40
2022-09-20T12:53:31.545Z,1.00
2022-09-20T12:56:50.951Z,0.80
2022-09-20T13:00:13.730Z,0.90
2022-09-20T13:04:05.359Z,0.90
2022-09-20T13:07:34.848Z,1.40
2022-09-20T13:10:34.375Z,1.10
2022-09-20T13:14:19.714Z,1.70
2022-09-20T13:17:32.938Z,1.30
2022-09-20T13:20:31.682Z,1.50
2022-09-20T13:23:29.739Z,2.00
2022-09-20T13:26:56.824Z,2.40
2022-09-20T13:30:17.774Z,1.70
2022-09-20T13:33:18.202Z,1.50
2022-09-20T13:36:10.619Z,1.30
2022-09-20T13:39:17.166Z,1.20
2022-09-20T13:42:36.763Z,1.00
2022-09-20T13:45:26.785Z,1.50
2022-09-20T13:51:04.608Z,0.80
2022-09-20T13:53:52.225Z,1.60
2022-09-20T13:56:43.772Z,0.80
2022-09-20T13:59:45.812Z,1.40
2022-09-20T14:05:26.904Z,1.10
2022-09-20T14:08:24.593Z,1.10
2022-09-20T14:11:50.845Z,0.80
2022-09-20T14:15:17.838Z,0.80
2022-09-20T14:18:59.912Z,0.60
2022-09-20T14:22:10.048Z,0.70
2022-09-20T14:25:29.945Z,0.70
2022-09-20T14:29:10.746Z,0.50
2022-09-20T14:32:30.935Z,0.90
2022-09-20T14:36:09.384Z,0.70
2022-09-20T14:39:45.374Z,0.90
2022-09-20T14:43:00.212Z,1.30
2022-09-20T14:46:22.902Z,1.30
2022-09-20T14:49:31.310Z,2.10
2022-09-20T14:52:46.643Z,2.20
2022-09-20T14:56:15.829Z,1.50
2022-09-20T14:59:36.957Z,1.40
2022-09-20T15:03:03.693Z,1.40
2022-09-20T15:06:40.950Z,1.70
2022-09-20T15:09:44.827Z,1.50
2022-09-20T15:13:15.327Z,1.70
2022-09-20T15:16:37.020Z,2.10
2022-09-20T15:19:48.258Z,3.10
2022-09-20T15:22:58.184Z,5.10
2022-09-20T15:25:54.356Z,6.50
2022-09-20T15:29:06.657Z,6.10
2022-09-20T15:32:00.799Z,4.80
2022-09-20T15:35:29.797Z,3.70
2022-09-20T15:38:40.297Z,2.10
2022-09-20T15:41:45.226Z,2.90
2022-09-20T15:44:40.109Z,2.90
2022-09-20T15:47:33.108Z,3.00
2022-09-20T15:50:31.570Z,2.10
2022-09-20T15:53:44.836Z,2.40
2022-09-20T15:59:27.886Z,2.40
2022-09-20T16:02:41.620Z,2.30
2022-09-20T16:06:03.910Z,2.20
2022-09-20T16:09:04.173Z,4.80
2022-09-20T16:12:02.007Z,7.00
2022-09-20T16:14:49.818Z,7.90
2022-09-20T16:17:55.931Z,8.90
2022-09-20T16:20:45.597Z,7.60
2022-09-20T16:23:33.224Z,19.20
2022-09-20T16:26:21.880Z,12.90
2022-09-20T16:29:09.553Z,10.90
2022-09-20T16:31:58.783Z,16.10
2022-09-20T16:34:46.270Z,10.20
2022-09-20T16:37:33.493Z,11.50
2022-09-20T16:40:25.486Z,7.50
2022-09-20T16:43:13.009Z,7.70
2022-09-20T16:46:01.387Z,7.50
2022-09-20T16:48:53.905Z,8.90
2022-09-20T16:51:44.571Z,16.50
2022-09-20T16:54:34.002Z,18.00
2022-09-20T16:57:22.730Z,17.40
2022-09-20T17:00:12.303Z,13.50
2022-09-20T17:02:59.319Z,13.90
2022-09-20T17:05:48.418Z,12.60
2022-09-20T17:08:40.364Z,13.60
2022-09-20T17:11:57.818Z,11.80
2022-09-20T17:15:09.332Z,12.60
2022-09-20T17:18:24.718Z,10.90
2022-09-20T17:21:55.850Z,13.60
2022-09-20T17:25:26.742Z,11.80
2022-09-20T17:28:57.813Z,12.60
2022-09-20T17:32:28.705Z,14.30
2022-09-20T17:35:45.832Z,13.80
2022-09-20T17:39:28.731Z,12.50
2022-09-20T17:43:09.007Z,14.00
2022-09-20T17:46:45.842Z,14.00
2022-09-20T17:50:16.901Z,12.70
2022-09-20T17:53:47.712Z,11.30
2022-09-20T17:57:18.810Z,12.90
2022-09-20T18:00:49.762Z,13.80
2022-09-20T18:04:20.940Z,12.50
2022-09-20T18:07:54.739Z,12.30
2022-09-20T18:11:28.866Z,13.30
2022-09-20T18:14:59.852Z,19.40
2022-09-20T18:18:30.863Z,16.10
2022-09-20T18:22:01.777Z,23.50
2022-09-20T18:25:32.724Z,20.10
2022-09-20T18:29:03.716Z,16.60
2022-09-20T18:32:34.888Z,15.40
2022-09-20T18:36:07.915Z,8.40
2022-09-20T18:39:38.713Z,7.80
2022-09-20T18:43:09.766Z,10.60
2022-09-20T18:46:40.870Z,11.30
2022-09-20T18:50:11.759Z,10.00
2022-09-20T18:53:42.859Z,6.70
2022-09-20T18:57:13.808Z,9.00
2022-09-20T19:00:44.844Z,4.60
2022-09-20T19:04:38.820Z,5.00
2022-09-20T19:08:18.688Z,9.40
2022-09-20T19:11:55.881Z,8.20
2022-09-20T19:15:35.709Z,7.10
2022-09-20T19:19:25.908Z,4.20
2022-09-20T19:22:56.698Z,4.00
2022-09-20T19:26:36.804Z,4.50
2022-09-20T19:30:07.709Z,4.00
2022-09-20T19:33:42.832Z,3.70
2022-09-20T19:37:19.682Z,4.50
2022-09-20T19:40:49.884Z,4.20
2022-09-20T19:44:39.661Z,3.30
2022-09-20T19:48:16.954Z,2.90
2022-09-20T19:51:49.125Z,4.40
2022-09-20T19:55:20.906Z,5.80
2022-09-20T19:58:51.711Z,5.20
2022-09-20T20:02:22.889Z,5.10
2022-09-20T20:05:52.710Z,4.10
2022-09-20T20:09:21.792Z,5.70
2022-09-20T20:12:58.702Z,3.00
2022-09-20T20:16:32.777Z,2.30
2022-09-20T20:20:06.832Z,3.00
2022-09-20T20:23:47.832Z,2.80
2022-09-20T20:27:18.710Z,2.10
2022-09-20T20:30:50.855Z,2.80
2022-09-20T20:34:22.683Z,2.30
2022-09-20T20:38:04.811Z,4.30
2022-09-20T20:41:36.677Z,2.00
2022-09-20T20:45:07.803Z,3.20
2022-09-20T20:48:37.662Z,3.40
2022-09-20T20:52:07.849Z,2.30
2022-09-20T20:55:38.659Z,1.70
2022-09-20T20:59:09.925Z,1.30
2022-09-20T21:02:40.738Z,1.50
2022-09-20T21:06:08.767Z,1.50
2022-09-20T21:09:42.713Z,2.00
2022-09-20T21:13:13.787Z,1.10
2022-09-20T21:16:41.730Z,1.30
2022-09-20T21:20:14.771Z,1.60
2022-09-20T21:23:45.792Z,0.90
2022-09-20T21:27:16.798Z,1.50
2022-09-20T21:30:47.759Z,1.30
2022-09-20T21:34:18.780Z,0.90
2022-09-20T21:37:49.697Z,1.00
2022-09-20T21:41:21.139Z,1.70
2022-09-20T21:44:51.679Z,1.70
2022-09-20T21:48:22.749Z,1.60
2022-09-20T21:51:58.667Z,1.40
2022-09-20T21:55:28.909Z,1.90
2022-09-20T21:58:56.691Z,2.00
2022-09-20T22:02:28.077Z,2.30
2022-09-20T22:05:58.680Z,2.70
2022-09-20T22:09:29.776Z,2.80
2022-09-20T22:13:03.664Z,2.50
2022-09-20T22:16:33.756Z,1.90
2022-09-20T22:20:03.668Z,2.80
2022-09-20T22:23:32.833Z,2.90
2022-09-20T22:27:09.740Z,4.00
2022-09-20T22:30:45.805Z,1.90
2022-09-20T22:34:21.662Z,1.80
2022-09-20T22:37:47.725Z,2.00
2022-09-20T22:41:21.683Z,2.00
2022-09-20T22:44:55.761Z,2.20
2022-09-20T22:48:28.674Z,1.60
2022-09-20T22:52:02.737Z,2.00
2022-09-20T22:55:35.740Z,1.90
2022-09-20T22:59:05.816Z,2.00
2022-09-20T23:02:37.677Z,1.50
2022-09-20T23:06:08.734Z,2.00
2022-09-20T23:09:39.680Z,1.50
2022-09-20T23:13:09.728Z,1.10
2022-09-20T23:16:41.732Z,1.70
2022-09-20T23:20:17.779Z,2.30
2022-09-20T23:23:48.649Z,1.50
2022-09-20T23:27:22.809Z,1.30
2022-09-20T23:30:54.781Z,2.00
2022-09-20T23:34:20.798Z,3.20
2022-09-20T23:37:51.646Z,1.80
2022-09-20T23:41:22.802Z,5.00
2022-09-20T23:44:55.632Z,2.80
2022-09-20T23:48:24.751Z,2.70
2022-09-20T23:51:52.633Z,2.70
2022-09-20T23:55:23.732Z,2.80
2022-09-20T23:58:54.753Z,3.70
